createdAt,value
2017-10-27T00:01:59.825Z,83.84
2017-10-27T00:04:29.037Z,84.20
2017-10-27T00:06:58.304Z,84.64
2017-10-27T00:09:27.510Z,84.81
2017-10-27T00:11:56.975Z,84.46
2017-10-27T00:14:26.199Z,84.66
2017-10-27T00:16:56.207Z,84.69
2017-10-27T00:19:25.516Z,84.39
2017-10-27T00:21:54.724Z,84.13
2017-10-27T00:24:24.776Z,84.45
2017-10-27T00:26:54.003Z,84.52
2017-10-27T00:29:23.237Z,84.25
2017-10-27T00:31:52.639Z,84.34
2017-10-27T00:34:22.100Z,84.61
2017-10-27T00:36:51.328Z,84.76
2017-10-27T00:39:20.553Z,85.12
2017-10-27T00:41:49.765Z,85.10
2017-10-27T00:44:19.866Z,85.69
2017-10-27T00:46:49.063Z,85.68
2017-10-27T00:49:18.299Z,85.82
2017-10-27T00:51:47.525Z,85.89
2017-10-27T00:54:17.032Z,85.51
2017-10-27T00:56:46.522Z,85.42
2017-10-27T00:59:15.729Z,84.82
2017-10-27T01:01:45.715Z,84.38
2017-10-27T01:04:14.947Z,84.78
2017-10-27T01:06:45.155Z,85.17
2017-10-27T01:09:14.454Z,85.07
2017-10-27T01:11:43.732Z,85.52
2017-10-27T01:14:12.967Z,84.94
2017-10-27T01:16:42.952Z,85.12
2017-10-27T01:19:12.159Z,85.41
2017-10-27T01:21:41.372Z,84.68
2017-10-27T01:24:10.658Z,84.33
2017-10-27T01:26:39.856Z,84.11
2017-10-27T01:29:09.075Z,84.66
2017-10-27T01:31:38.286Z,83.98
2017-10-27T01:34:08.275Z,84.35
2017-10-27T01:36:37.534Z,84.42
2017-10-27T01:39:06.756Z,83.36
2017-10-27T01:41:36.136Z,83.40
2017-10-27T01:44:05.360Z,83.43
2017-10-27T01:46:34.699Z,83.88
2017-10-27T01:49:04.668Z,83.80
2017-10-27T01:51:33.882Z,84.23
2017-10-27T01:54:03.449Z,84.11
2017-10-27T01:56:32.711Z,82.68
2017-10-27T01:59:02.682Z,81.61
2017-10-27T02:01:32.210Z,83.70
2017-10-27T02:04:01.407Z,85.25
2017-10-27T02:06:30.613Z,85.34
2017-10-27T02:08:59.834Z,85.80
2017-10-27T02:11:30.028Z,86.24
2017-10-27T02:14:00.188Z,86.08
2017-10-27T02:16:29.471Z,87.97
2017-10-27T02:18:59.544Z,87.79
2017-10-27T02:21:28.755Z,87.93
2017-10-27T02:23:59.527Z,88.28
2017-10-27T02:26:29.487Z,88.02
2017-10-27T02:28:58.686Z,87.90
2017-10-27T02:31:27.890Z,88.22
2017-10-27T02:33:57.084Z,89.29
2017-10-27T02:36:26.329Z,89.13
2017-10-27T02:38:56.282Z,88.21
2017-10-27T02:41:25.804Z,87.92
2017-10-27T02:43:54.997Z,87.79
2017-10-27T02:46:24.202Z,87.68
2017-10-27T02:48:53.408Z,87.86
2017-10-27T02:51:22.597Z,87.61
2017-10-27T02:53:51.825Z,87.17
2017-10-27T02:56:21.804Z,87.57
2017-10-27T02:58:51.041Z,87.87
2017-10-27T03:01:21.004Z,87.67
2017-10-27T03:03:50.407Z,87.96
2017-10-27T03:06:19.690Z,87.53
2017-10-27T03:08:49.650Z,87.59
2017-10-27T03:11:19.507Z,86.85
2017-10-27T03:13:48.716Z,86.58
2017-10-27T03:16:17.969Z,87.01
2017-10-27T03:18:47.161Z,88.04
2017-10-27T03:21:16.360Z,88.22
2017-10-27T03:23:45.574Z,88.65
2017-10-27T03:26:15.559Z,88.81
2017-10-27T03:28:44.803Z,88.72
2017-10-27T03:31:14.016Z,88.29
2017-10-27T03:33:43.236Z,88.02
2017-10-27T03:38:47.863Z,87.85
2017-10-27T03:41:17.055Z,88.08
2017-10-27T03:43:46.309Z,88.07
2017-10-27T03:46:16.288Z,88.23
2017-10-27T03:48:45.917Z,87.49
2017-10-27T03:51:15.187Z,87.35
2017-10-27T03:53:44.605Z,87.52
2017-10-27T03:56:13.823Z,87.71
2017-10-27T03:58:43.014Z,87.89
2017-10-27T04:01:13.801Z,87.87
2017-10-27T04:03:43.004Z,87.73
2017-10-27T04:06:12.222Z,87.62
2017-10-27T04:08:41.424Z,87.89
2017-10-27T04:11:10.775Z,87.85
2017-10-27T04:13:40.153Z,87.33
2017-10-27T04:16:09.430Z,87.52
2017-10-27T04:18:38.735Z,87.83
2017-10-27T04:21:07.940Z,88.35
2017-10-27T04:23:37.155Z,88.55
2017-10-27T04:26:07.280Z,88.78
2017-10-27T04:28:37.267Z,88.17
2017-10-27T04:31:06.484Z,88.40
2017-10-27T04:33:36.471Z,88.31
2017-10-27T04:36:05.724Z,88.35
2017-10-27T04:38:34.947Z,87.75
2017-10-27T04:41:04.467Z,87.94
2017-10-27T04:43:33.674Z,88.03
2017-10-27T04:46:02.914Z,88.47
2017-10-27T04:48:32.887Z,88.88
2017-10-27T04:51:02.111Z,88.57
2017-10-27T04:53:32.083Z,88.59
2017-10-27T04:56:01.296Z,88.38
2017-10-27T04:58:32.010Z,87.73
2017-10-27T05:01:01.259Z,88.08
2017-10-27T05:03:31.269Z,88.18
2017-10-27T05:06:00.529Z,88.24
2017-10-27T05:08:29.772Z,87.82
2017-10-27T05:10:59.751Z,87.98
2017-10-27T05:13:29.045Z,87.79
2017-10-27T05:15:58.248Z,87.35
2017-10-27T05:18:32.992Z,87.72
2017-10-27T05:21:07.691Z,87.33
2017-10-27T05:23:42.635Z,87.61
2017-10-27T05:26:11.915Z,87.66
2017-10-27T05:28:41.148Z,87.41
2017-10-27T05:31:10.440Z,86.74
2017-10-27T05:33:40.601Z,87.36
2017-10-27T05:36:09.918Z,87.22
2017-10-27T05:38:39.870Z,87.39
2017-10-27T05:41:09.107Z,87.27
2017-10-27T05:43:39.095Z,87.08
2017-10-27T05:46:08.440Z,87.81
2017-10-27T05:48:37.631Z,87.57
2017-10-27T05:51:07.087Z,87.10
2017-10-27T05:53:36.494Z,87.52
2017-10-27T05:56:07.326Z,87.42
2017-10-27T05:58:36.676Z,87.22
2017-10-27T06:01:05.881Z,87.76
2017-10-27T06:03:35.110Z,88.12
2017-10-27T06:06:04.320Z,88.37
2017-10-27T06:08:33.547Z,88.14
2017-10-27T06:11:03.622Z,87.53
2017-10-27T06:13:32.827Z,88.24
2017-10-27T06:16:02.236Z,88.00
2017-10-27T06:18:32.960Z,87.61
2017-10-27T06:21:02.325Z,87.93
2017-10-27T06:23:31.550Z,87.63
2017-10-27T06:26:00.846Z,87.80
2017-10-27T06:28:30.046Z,87.92
2017-10-27T06:30:59.319Z,87.97
2017-10-27T06:33:28.689Z,87.97
2017-10-27T06:35:58.669Z,87.79
2017-10-27T06:38:27.873Z,87.61
2017-10-27T06:40:57.873Z,87.26
2017-10-27T06:43:27.073Z,87.11
2017-10-27T06:45:56.258Z,86.36
2017-10-27T06:48:25.920Z,86.45
2017-10-27T06:50:55.900Z,86.71
2017-10-27T06:53:25.143Z,86.73
2017-10-27T06:55:54.358Z,86.44
2017-10-27T06:58:23.581Z,87.12
2017-10-27T07:00:52.884Z,86.42
2017-10-27T07:03:22.279Z,86.88
2017-10-27T07:05:51.522Z,86.62
2017-10-27T07:08:20.717Z,86.57
2017-10-27T07:10:50.251Z,85.74
2017-10-27T07:13:19.477Z,86.07
2017-10-27T07:15:48.668Z,85.75
2017-10-27T07:18:17.894Z,85.08
2017-10-27T07:20:47.122Z,85.07
2017-10-27T07:23:17.148Z,85.32
2017-10-27T07:25:46.367Z,84.64
2017-10-27T07:28:15.580Z,85.28
2017-10-27T07:30:44.791Z,84.84
2017-10-27T07:33:15.567Z,84.85
2017-10-27T07:35:45.720Z,84.43
2017-10-27T07:38:15.024Z,84.50
2017-10-27T07:40:44.554Z,84.59
2017-10-27T07:43:14.037Z,84.77
2017-10-27T07:45:43.264Z,84.82
2017-10-27T07:48:12.472Z,85.38
2017-10-27T07:50:41.676Z,85.44
2017-10-27T07:53:11.706Z,84.19
2017-10-27T07:55:40.916Z,84.75
2017-10-27T07:58:10.136Z,84.56
2017-10-27T08:00:39.436Z,84.53
2017-10-27T08:03:08.644Z,84.78
2017-10-27T08:05:37.854Z,84.66
2017-10-27T08:08:07.082Z,85.49
2017-10-27T08:10:37.072Z,84.43
2017-10-27T08:13:06.303Z,84.43
2017-10-27T08:15:36.274Z,84.06
2017-10-27T08:18:05.604Z,84.30
2017-10-27T08:20:34.805Z,84.51
2017-10-27T08:23:05.532Z,84.19
2017-10-27T08:25:35.627Z,84.52
2017-10-27T08:28:04.848Z,83.55
2017-10-27T08:30:34.809Z,83.96
2017-10-27T08:33:04.018Z,83.03
2017-10-27T08:35:34.451Z,83.64
2017-10-27T08:38:03.659Z,83.00
2017-10-27T08:40:33.159Z,81.96
2017-10-27T08:43:02.438Z,82.71
2017-10-27T08:45:31.652Z,83.67
2017-10-27T08:48:01.629Z,82.79
2017-10-27T08:50:30.820Z,82.04
2017-10-27T08:53:00.058Z,81.22
2017-10-27T08:55:29.262Z,81.75
2017-10-27T08:57:58.495Z,82.32
2017-10-27T09:00:27.691Z,82.45
2017-10-27T09:02:57.675Z,81.92
2017-10-27T09:05:26.932Z,78.66
2017-10-27T09:07:56.164Z,78.78
2017-10-27T09:10:25.368Z,78.81
2017-10-27T09:12:54.559Z,79.23
2017-10-27T09:15:23.775Z,76.92
2017-10-27T09:17:53.997Z,76.68
2017-10-27T09:20:23.358Z,76.87
2017-10-27T09:22:52.547Z,76.74
2017-10-27T09:25:21.784Z,76.24
2017-10-27T09:27:50.985Z,76.24
2017-10-27T09:30:20.215Z,77.65
2017-10-27T09:32:50.171Z,76.30
2017-10-27T09:35:19.541Z,76.37
2017-10-27T09:37:49.617Z,77.38
2017-10-27T09:40:18.818Z,76.61
2017-10-27T09:42:48.032Z,76.59
2017-10-27T09:45:17.232Z,76.79
2017-10-27T09:47:47.221Z,76.34
2017-10-27T09:50:16.444Z,75.74
2017-10-27T09:52:46.435Z,76.36
2017-10-27T09:55:15.647Z,76.31
2017-10-27T09:57:44.864Z,74.62
2017-10-27T10:00:14.843Z,74.85
2017-10-27T10:02:44.533Z,75.00
2017-10-27T10:05:13.731Z,75.33
2017-10-27T10:07:42.970Z,75.71
2017-10-27T10:10:12.198Z,74.48
2017-10-27T10:12:41.420Z,74.03
2017-10-27T10:15:10.701Z,72.56
2017-10-27T10:17:39.900Z,74.20
2017-10-27T10:20:09.118Z,73.46
2017-10-27T10:22:38.322Z,73.87
2017-10-27T10:25:07.564Z,74.89
2017-10-27T10:27:37.527Z,75.81
2017-10-27T10:30:06.831Z,74.98
2017-10-27T10:32:36.143Z,75.52
2017-10-27T10:35:05.361Z,73.99
2017-10-27T10:37:34.572Z,73.60
2017-10-27T10:40:04.553Z,73.32
2017-10-27T10:42:33.731Z,74.43
2017-10-27T10:45:02.993Z,72.17
2017-10-27T10:47:32.977Z,72.17
2017-10-27T10:50:02.160Z,72.12
2017-10-27T10:52:31.387Z,72.16
2017-10-27T10:55:00.591Z,71.68
2017-10-27T10:57:29.797Z,71.86
2017-10-27T10:59:59.844Z,72.60
2017-10-27T11:02:29.055Z,72.47
2017-10-27T11:04:58.241Z,72.79
2017-10-27T11:07:27.599Z,73.24
2017-10-27T11:09:57.779Z,73.12
2017-10-27T11:12:27.020Z,73.02
2017-10-27T11:14:57.872Z,73.45
2017-10-27T11:17:27.074Z,71.97
2017-10-27T11:19:56.366Z,72.62
2017-10-27T11:22:25.801Z,72.79
2017-10-27T11:24:55.002Z,73.13
2017-10-27T11:27:24.206Z,74.14
2017-10-27T11:29:53.406Z,74.72
2017-10-27T11:32:22.619Z,76.11
2017-10-27T11:34:53.431Z,76.26
2017-10-27T11:37:22.734Z,76.31
2017-10-27T11:39:52.228Z,77.17
2017-10-27T11:42:21.479Z,76.97
2017-10-27T11:44:51.430Z,75.76
2017-10-27T11:47:20.673Z,74.46
2017-10-27T11:49:49.916Z,75.10
2017-10-27T11:52:19.905Z,73.70
2017-10-27T11:54:49.891Z,73.44
2017-10-27T11:57:20.595Z,73.61
2017-10-27T11:59:49.811Z,71.53
2017-10-27T12:02:19.043Z,71.25
2017-10-27T12:04:49.050Z,71.04
2017-10-27T12:07:18.242Z,70.67
2017-10-27T12:09:47.807Z,71.56
2017-10-27T12:12:17.016Z,70.78
2017-10-27T12:14:46.226Z,71.31
2017-10-27T12:17:15.493Z,69.29
2017-10-27T12:19:44.687Z,68.98
2017-10-27T12:22:13.919Z,67.98
2017-10-27T12:24:43.115Z,66.47
2017-10-27T12:27:12.348Z,66.11
2017-10-27T12:29:41.534Z,66.92
2017-10-27T12:32:10.794Z,65.05
2017-10-27T12:34:39.990Z,64.17
2017-10-27T12:37:09.187Z,64.82
2017-10-27T12:39:38.392Z,64.17
2017-10-27T12:42:08.353Z,65.03
2017-10-27T12:44:38.442Z,65.86
2017-10-27T12:47:07.744Z,65.74
2017-10-27T12:49:38.559Z,64.80
2017-10-27T12:52:08.135Z,65.15
2017-10-27T12:54:37.358Z,62.43
2017-10-27T12:57:06.589Z,62.92
2017-10-27T12:59:35.801Z,64.65
2017-10-27T13:02:05.791Z,63.43
2017-10-27T13:04:34.986Z,64.95
2017-10-27T13:07:04.343Z,64.67
2017-10-27T13:09:33.551Z,65.09
2017-10-27T13:12:02.839Z,64.91
2017-10-27T13:14:32.031Z,64.88
2017-10-27T13:17:01.279Z,63.67
2017-10-27T13:19:30.491Z,64.67
2017-10-27T13:21:59.824Z,66.24
2017-10-27T13:24:29.048Z,65.49
2017-10-27T13:26:58.260Z,63.23
2017-10-27T13:29:27.472Z,63.69
2017-10-27T13:31:56.667Z,64.36
2017-10-27T13:34:26.016Z,65.87
2017-10-27T13:36:55.239Z,65.38
2017-10-27T13:39:24.459Z,63.96
2017-10-27T13:41:53.687Z,63.71
2017-10-27T13:44:23.769Z,64.60
2017-10-27T13:46:52.983Z,63.98
2017-10-27T13:49:22.200Z,64.07
2017-10-27T13:51:52.205Z,64.78
2017-10-27T13:54:21.428Z,65.24
2017-10-27T13:56:51.415Z,65.24
2017-10-27T13:59:20.817Z,65.96
2017-10-27T14:01:50.102Z,66.22
2017-10-27T14:04:19.305Z,67.20
2017-10-27T14:06:49.300Z,67.02
2017-10-27T14:09:18.533Z,66.83
2017-10-27T14:11:47.788Z,67.67
2017-10-27T14:14:17.076Z,67.08
2017-10-27T14:16:46.446Z,67.14
2017-10-27T14:19:15.636Z,67.41
2017-10-27T14:21:45.711Z,67.55
2017-10-27T14:24:14.980Z,67.65
2017-10-27T14:26:44.191Z,67.81
2017-10-27T14:29:13.397Z,68.48
2017-10-27T14:31:42.643Z,68.13
2017-10-27T14:34:11.853Z,69.04
2017-10-27T14:36:41.080Z,68.20
2017-10-27T14:39:10.287Z,68.40
2017-10-27T14:41:39.511Z,68.76
2017-10-27T14:44:09.492Z,67.98
2017-10-27T14:46:38.707Z,68.84
2017-10-27T14:49:07.951Z,68.14
2017-10-27T14:51:37.180Z,67.74
2017-10-27T14:54:06.605Z,67.72
2017-10-27T14:56:35.833Z,68.18
2017-10-27T14:59:05.067Z,68.36
2017-10-27T15:01:34.279Z,68.77
2017-10-27T15:04:03.483Z,68.35
2017-10-27T15:06:32.760Z,69.02
2017-10-27T15:09:02.779Z,69.53
2017-10-27T15:11:32.139Z,69.21
2017-10-27T15:14:01.344Z,69.17
2017-10-27T15:16:30.581Z,70.02
2017-10-27T15:18:59.799Z,70.94
2017-10-27T15:21:29.015Z,69.64
2017-10-27T15:23:58.207Z,70.45
2017-10-27T15:26:27.423Z,69.69
2017-10-27T15:28:56.699Z,69.66
2017-10-27T15:31:25.905Z,70.48
2017-10-27T15:33:55.147Z,70.52
2017-10-27T15:36:25.203Z,70.11
2017-10-27T15:38:54.443Z,70.60
2017-10-27T15:41:23.668Z,70.46
2017-10-27T15:43:53.660Z,70.10
2017-10-27T15:46:23.655Z,70.27
2017-10-27T15:48:52.882Z,69.95
2017-10-27T15:51:22.840Z,70.64
2017-10-27T15:53:52.088Z,70.95
2017-10-27T15:56:22.075Z,70.98
2017-10-27T15:58:52.325Z,70.98
2017-10-27T16:01:21.539Z,71.53
2017-10-27T16:03:51.510Z,71.75
2017-10-27T16:06:20.877Z,72.57
2017-10-27T16:08:50.069Z,72.62
2017-10-27T16:11:19.390Z,72.32
2017-10-27T16:13:48.611Z,72.93
2017-10-27T16:16:17.856Z,72.81
2017-10-27T16:18:47.076Z,72.91
2017-10-27T16:21:16.274Z,73.61
2017-10-27T16:23:45.519Z,73.17
2017-10-27T16:26:15.503Z,73.41
2017-10-27T16:28:44.747Z,73.60
2017-10-27T16:31:14.732Z,74.33
2017-10-27T16:33:43.960Z,74.63
2017-10-27T16:36:14.053Z,74.53
2017-10-27T16:38:43.360Z,75.22
2017-10-27T16:41:12.556Z,75.66
2017-10-27T16:43:41.767Z,75.70
2017-10-27T16:46:11.748Z,76.03
2017-10-27T16:48:40.996Z,76.14
2017-10-27T16:51:10.320Z,76.19
2017-10-27T16:53:39.571Z,76.04
2017-10-27T16:56:08.958Z,75.79
2017-10-27T16:58:38.297Z,75.77
2017-10-27T17:01:08.295Z,75.56
2017-10-27T17:03:38.367Z,75.57
2017-10-27T17:06:07.609Z,75.56
2017-10-27T17:08:37.083Z,75.64
2017-10-27T17:11:06.327Z,75.80
2017-10-27T17:13:35.503Z,75.83
2017-10-27T17:16:04.753Z,75.93
2017-10-27T17:18:34.012Z,75.41
2017-10-27T17:21:03.995Z,75.33
2017-10-27T17:23:33.291Z,75.28
2017-10-27T17:26:02.716Z,75.99
2017-10-27T17:28:31.916Z,75.08
2017-10-27T17:31:01.167Z,75.07
2017-10-27T17:33:30.422Z,75.17
2017-10-27T17:35:59.876Z,75.61
2017-10-27T17:38:29.099Z,75.54
2017-10-27T17:40:58.328Z,75.50
2017-10-27T17:43:28.303Z,75.45
2017-10-27T17:45:57.543Z,75.47
2017-10-27T17:48:27.513Z,75.19
2017-10-27T17:50:56.812Z,75.95
2017-10-27T17:53:26.051Z,75.03
2017-10-27T17:55:55.414Z,75.25
2017-10-27T17:58:24.635Z,75.11
2017-10-27T18:00:53.872Z,75.18
2017-10-27T18:03:23.095Z,75.48
2017-10-27T18:05:52.302Z,75.41
2017-10-27T18:08:21.583Z,75.49
2017-10-27T18:10:50.805Z,75.45
2017-10-27T18:13:20.051Z,75.57
2017-10-27T18:15:50.060Z,76.36
2017-10-27T18:18:20.066Z,76.96
2017-10-27T18:20:50.079Z,77.23
2017-10-27T18:23:20.087Z,77.21
2017-10-27T18:25:49.283Z,77.52
2017-10-27T18:28:18.520Z,77.53
2017-10-27T18:30:47.769Z,77.75
2017-10-27T18:33:17.036Z,77.92
2017-10-27T18:35:46.487Z,77.99
2017-10-27T18:38:15.716Z,78.05
2017-10-27T18:40:44.939Z,78.10
2017-10-27T18:43:14.255Z,78.21
2017-10-27T18:45:43.459Z,78.34
2017-10-27T18:48:12.864Z,78.37
2017-10-27T18:50:43.619Z,78.29
2017-10-27T18:53:12.831Z,78.50
2017-10-27T18:55:42.827Z,78.72
2017-10-27T18:58:12.080Z,78.83
2017-10-27T19:00:41.332Z,79.12
2017-10-27T19:03:11.326Z,78.94
2017-10-27T19:05:41.335Z,79.18
2017-10-27T19:08:10.560Z,79.59
2017-10-27T19:10:40.584Z,78.67
2017-10-27T19:13:10.582Z,78.42
2017-10-27T19:15:39.872Z,78.76
2017-10-27T19:18:09.862Z,78.12
2017-10-27T19:20:39.104Z,78.00
2017-10-27T19:23:09.098Z,78.33
2017-10-27T19:25:38.475Z,78.76
2017-10-27T19:28:07.712Z,78.39
2017-10-27T19:30:36.960Z,78.39
2017-10-27T19:33:06.198Z,78.08
2017-10-27T19:35:35.422Z,78.15
2017-10-27T19:38:05.444Z,78.27
2017-10-27T19:40:34.663Z,78.74
2017-10-27T19:43:04.057Z,79.07
2017-10-27T19:45:34.032Z,78.79
2017-10-27T19:48:04.034Z,78.71
2017-10-27T19:50:33.258Z,78.38
2017-10-27T19:53:02.476Z,78.49
2017-10-27T19:55:31.741Z,78.34
2017-10-27T19:58:01.030Z,78.50
2017-10-27T20:00:31.779Z,78.42
2017-10-27T20:03:01.042Z,77.96
2017-10-27T20:05:30.253Z,78.24
2017-10-27T20:07:59.459Z,78.16
2017-10-27T20:10:30.292Z,78.15
2017-10-27T20:13:00.390Z,78.17
2017-10-27T20:15:29.634Z,78.27
2017-10-27T20:17:58.986Z,78.27
2017-10-27T20:20:28.236Z,78.40
2017-10-27T20:22:58.260Z,78.26
2017-10-27T20:25:28.521Z,78.10
2017-10-27T20:27:57.837Z,78.53
2017-10-27T20:30:27.073Z,78.35
2017-10-27T20:32:56.372Z,78.30
2017-10-27T20:35:26.368Z,78.45
2017-10-27T20:37:56.363Z,78.70
2017-10-27T20:40:25.577Z,78.52
2017-10-27T20:42:54.792Z,78.67
2017-10-27T20:45:24.039Z,78.31
2017-10-27T20:47:53.281Z,78.32
2017-10-27T20:50:23.269Z,78.45
2017-10-27T20:52:52.483Z,78.58
2017-10-27T20:55:23.248Z,78.59
2017-10-27T20:57:53.255Z,78.60
2017-10-27T21:00:23.251Z,79.04
2017-10-27T21:02:52.442Z,80.92
2017-10-27T21:05:21.675Z,82.07
2017-10-27T21:07:50.909Z,81.81
2017-10-27T21:10:20.149Z,81.91
2017-10-27T21:12:49.396Z,82.72
2017-10-27T21:15:18.631Z,80.92
2017-10-27T21:17:47.849Z,79.42
2017-10-27T21:20:17.928Z,80.84
2017-10-27T21:22:47.117Z,80.80
2017-10-27T21:25:16.372Z,78.08
2017-10-27T21:27:46.378Z,78.59
2017-10-27T21:30:15.602Z,76.58
2017-10-27T21:32:44.827Z,77.20
2017-10-27T21:35:14.054Z,77.27
2017-10-27T21:37:43.283Z,78.69
2017-10-27T21:40:13.268Z,80.23
2017-10-27T21:42:42.493Z,81.67
2017-10-27T21:45:12.488Z,81.17
2017-10-27T21:47:41.716Z,81.35
2017-10-27T21:50:11.713Z,81.59
2017-10-27T21:52:41.694Z,81.56
2017-10-27T21:55:10.929Z,81.55
2017-10-27T21:57:40.928Z,81.51
2017-10-27T22:00:10.193Z,81.36
2017-10-27T22:02:39.435Z,81.39
2017-10-27T22:05:08.647Z,81.80
2017-10-27T22:07:38.628Z,81.16
2017-10-27T22:10:07.920Z,81.16
2017-10-27T22:12:37.124Z,81.35
2017-10-27T22:15:06.327Z,81.50
2017-10-27T22:17:37.164Z,81.28
2017-10-27T22:20:07.905Z,81.34
2017-10-27T22:22:37.885Z,81.25
2017-10-27T22:25:07.101Z,81.37
2017-10-27T22:27:36.367Z,81.38
2017-10-27T22:30:05.591Z,81.44
2017-10-27T22:32:34.824Z,81.45
2017-10-27T22:35:04.811Z,81.77
2017-10-27T22:37:34.052Z,81.40
2017-10-27T22:40:03.289Z,81.75
2017-10-27T22:42:32.511Z,81.81
2017-10-27T22:45:01.714Z,81.83
2017-10-27T22:47:31.829Z,82.02
2017-10-27T22:50:02.550Z,81.76
2017-10-27T22:52:31.861Z,81.85
2017-10-27T22:55:01.060Z,81.39
2017-10-27T22:57:31.874Z,81.62
2017-10-27T23:00:01.102Z,81.37
2017-10-27T23:02:30.348Z,81.55
2017-10-27T23:04:59.578Z,81.03
2017-10-27T23:20:51.508Z,80.36
2017-10-27T23:23:22.263Z,80.65
2017-10-27T23:25:52.289Z,80.12
2017-10-27T23:28:22.276Z,80.29
2017-10-27T23:30:53.008Z,80.04
2017-10-27T23:33:22.220Z,80.55
2017-10-27T23:35:52.528Z,80.40
2017-10-27T23:38:21.802Z,80.40
2017-10-27T23:40:51.092Z,80.68
2017-10-27T23:43:20.236Z,79.57
2017-10-27T23:45:50.293Z,79.79
2017-10-27T23:48:19.486Z,79.54
2017-10-27T23:50:48.715Z,79.33
2017-10-27T23:53:17.935Z,79.60
2017-10-27T23:55:47.130Z,79.68
2017-10-27T23:58:16.381Z,79.68
